Flight Track Log - Related Links

Times and Time Zones

All times are in EDT time to prevent confusion due to time zone crossing. See the DAL268 flight status page for this flight to view local times or setup timezone preferences in your user account.

Time Position Orientation Groundspeed Altitude Reporting Facility
EDT Latitude Longitude Course Direction KTS MPH feet Rate Location/Type
Mon 02:29:57 PM 37.6070 -122.3810 142° Southeast  Level FlightAware ADS-B
Mon 02:32:00 PM 37.7017 -122.0791 63° Northeast  Level FlightAware Approximate
Mon 02:32:38 PM 37.6100 -122.3780 63° Northeast 94 108  Level FlightAware ADS-B
Mon 02:33:04 PM 37.6260 -122.3680 26° Northeast 162 186 200 1,412 Climbing FlightAware ADS-B
Mon 02:33:29 PM 37.6410 -122.3530 38° Northeast 174 200 1,200 2,045 Climbing FlightAware ADS-B
Mon 02:33:48 PM 37.6530 -122.3360 48° Northeast 205 236 1,700 1,950 Climbing FlightAware ADS-B
Mon 02:34:09 PM 37.6670 -122.3160 49° Northeast 222 255 2,500 2,455 Climbing FlightAware ADS-B
Mon 02:34:10 PM 37.6667 -122.3167 72° East 207 238 2,600 2,100 Climbing Northern Cal TRACON
Mon 02:34:29 PM 37.6790 -122.2980 50° Northeast 241 277 3,200 2,279 Climbing FlightAware ADS-B
Mon 02:37:00 PM 37.7721 -121.8935 65° Northeast  Level FlightAware Approximate
Mon 02:38:00 PM 37.8206 -121.7382 67° East  Level FlightAware Approximate
Mon 02:39:00 PM 37.8746 -121.5848 72° East  Level FlightAware Approximate
Mon 02:39:18 PM 37.8860 -121.8300 72° East 405 466 14,300  Level FlightAware ADS-B
Mon 02:39:54 PM 37.9050 -121.7470 74° East 414 476 15,600 2,143 Climbing FlightAware ADS-B
Mon 02:40:28 PM 37.9230 -121.6690 74° East 423 487 16,800 2,091 Climbing FlightAware ADS-B
Mon 02:41:00 PM 37.9390 -121.5900 76° East 432 497 17,900 1,941 Climbing FlightAware ADS-B
Mon 02:41:36 PM 37.9550 -121.5020 77° East 442 509 19,000 1,667 Climbing FlightAware ADS-B
Mon 02:42:12 PM 37.9720 -121.4090 77° East 453 521 19,900 1,629 Climbing FlightAware ADS-B
Mon 02:42:46 PM 37.9890 -121.3200 76° East 463 533 20,900 1,521 Climbing FlightAware ADS-B
Mon 02:43:23 PM 38.0070 -121.2240 77° East 475 547 21,700 1,417 Climbing FlightAware ADS-B
Mon 02:43:58 PM 38.0260 -121.1240 76° East 481 554 22,600 1,652 Climbing FlightAware ADS-B
Mon 02:44:32 PM 38.0440 -121.0330 76° East 486 559 23,600 1,543 Climbing FlightAware ADS-B
Mon 02:45:08 PM 38.0620 -120.9330 77° East 493 567 24,400 1,417 Climbing FlightAware ADS-B
Mon 02:45:44 PM 38.0810 -120.8310 77° East 501 577 25,300 1,500 Climbing FlightAware ADS-B
Mon 02:46:16 PM 38.0990 -120.7370 76° East 505 581 26,100 1,364 Climbing FlightAware ADS-B
Mon 02:46:50 PM 38.1160 -120.6410 77° East 512 589 26,800 1,250 Climbing FlightAware ADS-B
Mon 02:47:28 PM 38.1370 -120.5270 77° East 518 596 27,600 1,135 Climbing FlightAware ADS-B
Mon 02:48:04 PM 38.1560 -120.4220 77° East 525 604 28,200 1,200 Climbing FlightAware ADS-B
Mon 02:48:38 PM 38.1750 -120.3160 77° East 528 608 29,000 1,543 Climbing FlightAware ADS-B
Mon 02:49:14 PM 38.1940 -120.2100 77° East 527 606 30,000 1,565 Climbing FlightAware ADS-B
Mon 02:49:47 PM 38.2120 -120.1110 77° East 526 605 30,800 1,545 Climbing FlightAware ADS-B
Mon 02:50:20 PM 38.2300 -120.0100 77° East 524 603 31,700 1,543 Climbing FlightAware ADS-B
Mon 02:50:57 PM 38.2490 -119.9020 77° East 520 598 32,600 1,521 Climbing FlightAware ADS-B
Mon 02:51:31 PM 38.2670 -119.8010 77° East 519 597 33,500 1,352 Climbing FlightAware ADS-B
Mon 02:52:08 PM 38.2860 -119.6900 78° East 520 598 34,200 1,114 Climbing FlightAware ADS-B
Mon 02:52:41 PM 38.3040 -119.5900 77° East 521 600 34,800 1,147 Climbing FlightAware ADS-B
Mon 02:53:16 PM 38.3220 -119.4850 78° East 520 598 35,500 1,099 Climbing FlightAware ADS-B
Mon 02:53:52 PM 38.3410 -119.3760 77° East 519 597 36,100 973 Climbing FlightAware ADS-B
Mon 02:54:30 PM 38.3600 -119.2640 78° East 520 598 36,700 771 Climbing FlightAware ADS-B
Mon 02:55:02 PM 38.3760 -119.1670 78° East 520 598 37,000 269 Climbing FlightAware ADS-B
Mon 02:55:37 PM 38.3940 -119.0650 77° East 517 595 37,000  Level FlightAware ADS-B
Mon 02:56:12 PM 38.4110 -118.9590 78° East 517 595 37,000  Level FlightAware ADS-B
Mon 02:56:48 PM 38.4290 -118.8530 78° East 518 596 37,000  Level FlightAware ADS-B
Mon 02:57:36 PM 38.4530 -118.7090 78° East 521 600 37,000  Level FlightAware ADS-B
Mon 02:58:10 PM 38.4690 -118.6110 78° East 523 602 37,000  Level FlightAware ADS-B
Mon 02:58:46 PM 38.4880 -118.4960 78° East 525 604 37,000  Level FlightAware ADS-B
Mon 02:59:22 PM 38.5050 -118.3890 78° East 524 603 37,000  Level FlightAware ADS-B
Mon 02:59:58 PM 38.5230 -118.2790 78° East 523 602 37,000  Level FlightAware ADS-B
Mon 03:00:32 PM 38.5400 -118.1760 78° East 523 602 37,000  Level FlightAware ADS-B
Mon 03:01:04 PM 38.5550 -118.0810 79° East 523 602 37,000  Level FlightAware ADS-B
Mon 03:01:40 PM 38.5720 -117.9710 79° East 525 604 37,000  Level FlightAware ADS-B
Mon 03:02:16 PM 38.5880 -117.8770 78° East 525 604 37,000  Level FlightAware ADS-B
Mon 03:02:52 PM 38.6030 -117.7840 78° East 525 604 37,000  Level FlightAware ADS-B
Mon 03:03:26 PM 38.6180 -117.6960 78° East 525 604 37,000  Level FlightAware ADS-B
Mon 03:04:02 PM 38.6330 -117.6030 78° East 525 604 37,000  Level FlightAware ADS-B
Mon 03:04:38 PM 38.6490 -117.5100 78° East 525 604 37,000  Level FlightAware ADS-B
Mon 03:05:14 PM 38.6640 -117.4170 78° East 525 604 37,000  Level FlightAware ADS-B
Mon 03:05:50 PM 38.6800 -117.3240 78° East 525 604 37,000  Level FlightAware ADS-B
Mon 03:06:18 PM 38.6580 -117.1240 98° East 525 604 37,000  Level FlightAware ADS-B
Mon 03:06:57 PM 38.6680 -117.0020 84° East 524 603 37,000  Level FlightAware ADS-B
Mon 03:07:32 PM 38.6770 -116.8950 84° East 523 602 37,000  Level FlightAware ADS-B
Mon 03:08:07 PM 38.6850 -116.7930 84° East 523 602 37,000  Level FlightAware ADS-B
Mon 03:08:47 PM 38.6960 -116.6640 84° East 524 603 37,000  Level FlightAware ADS-B
Mon 03:09:22 PM 38.7040 -116.5690 84° East 524 603 37,000  Level FlightAware ADS-B
Mon 03:09:58 PM 38.7110 -116.4750 85° East 524 603 37,000  Level FlightAware ADS-B
Mon 03:10:34 PM 38.7190 -116.3800 84° East 524 603 37,000  Level FlightAware ADS-B
Mon 03:10:59 PM 38.7240 -116.3150 84° East 524 603 37,000  Level FlightAware ADS-B
Mon 03:11:50 PM 38.7350 -116.1810 84° East 524 603 37,000  Level FlightAware ADS-B
Mon 03:12:26 PM 38.7430 -116.0860 84° East 524 603 37,000  Level FlightAware ADS-B
Mon 03:13:02 PM 38.7510 -115.9910 84° East 524 603 37,000  Level FlightAware ADS-B
Mon 03:13:38 PM 38.7590 -115.8970 84° East 524 603 37,000  Level FlightAware ADS-B
Mon 03:14:14 PM 38.7660 -115.8020 85° East 524 603 37,000  Level FlightAware ADS-B
Mon 03:14:50 PM 38.7740 -115.7080 84° East 524 603 37,000  Level FlightAware ADS-B
Mon 03:15:26 PM 38.7820 -115.6130 84° East 524 603 37,000  Level FlightAware ADS-B
Mon 03:16:02 PM 38.7900 -115.5180 84° East 524 603 37,000  Level FlightAware ADS-B
Mon 03:16:38 PM 38.7970 -115.4240 85° East 524 603 37,000  Level FlightAware ADS-B
Mon 03:17:14 PM 38.8050 -115.3290 84° East 524 603 37,000  Level FlightAware ADS-B
Mon 03:17:50 PM 38.8130 -115.2340 84° East 524 603 37,000  Level FlightAware ADS-B
Mon 03:18:26 PM 38.8210 -115.1400 84° East 524 603 37,000  Level FlightAware ADS-B
Mon 03:19:42 PM 38.8414 -114.6414 84° East 525 604 37,000  Level Salt Lake Center
Mon 03:20:44 PM 38.8539 -114.4553 85° East 524 603 37,000  Level Salt Lake Center
Mon 03:21:45 PM 38.8647 -114.2661 86° East 529 609 37,000  Level Salt Lake Center
Mon 03:22:47 PM 38.8756 -114.0800 86° East 526 605 37,000  Level Salt Lake Center
Mon 03:23:49 PM 38.8861 -113.8922 86° East 528 608 37,000  Level Salt Lake Center
Mon 03:24:51 PM 38.8967 -113.7047 86° East 527 606 37,000  Level Salt Lake Center
Mon 03:25:53 PM 38.9064 -113.5178 86° East 525 604 37,000  Level Salt Lake Center
Mon 03:26:55 PM 38.9175 -113.2928 86° East 525 604 37,000  Level Salt Lake Center
Mon 03:27:57 PM 38.9272 -113.1069 86° East 524 603 37,000  Level Salt Lake Center
Mon 03:28:59 PM 38.9364 -112.9197 86° East 524 603 37,000  Level Salt Lake Center
Mon 03:34:09 PM 38.9790 -111.9340 86° East 527 606 37,000  Level FlightAware ADS-B
Mon 03:34:45 PM 38.9820 -111.8400 88° East 527 606 37,000  Level FlightAware ADS-B
Mon 03:35:21 PM 38.9860 -111.7440 87° East 527 606 37,000  Level FlightAware ADS-B
Mon 03:35:57 PM 38.9900 -111.6480 87° East 527 606 37,000  Level FlightAware ADS-B
Mon 03:36:21 PM 38.9930 -111.5840 87° East 527 606 37,000  Level FlightAware ADS-B
Mon 03:37:14 PM 38.9997 -111.3867 87° East 525 604 37,000  Level Salt Lake Center
Mon 03:38:16 PM 39.0056 -111.1728 88° East 525 604 37,000  Level Salt Lake Center
Mon 03:39:18 PM 39.0106 -110.9928 88° East 527 606 37,000  Level Salt Lake Center
Mon 03:40:20 PM 39.0164 -110.8150 88° East 523 602 37,000  Level Salt Lake Center
Mon 03:41:22 PM 39.0219 -110.6078 88° East 521 600 37,000  Level Salt Lake Center
Mon 03:42:24 PM 39.0297 -110.4317 87° East 518 596 37,000  Level Salt Lake Center
Mon 03:43:26 PM 39.0333 -110.2261 89° East 516 594 37,000  Level Salt Lake Center
Mon 03:45:29 PM 39.0425 -109.8453 88° East 517 595 37,000  Level Salt Lake Center
Mon 03:46:31 PM 39.0456 -109.6689 89° East 517 595 37,000  Level Salt Lake Center
Mon 03:47:33 PM 39.0494 -109.4617 89° East 519 597 37,000  Level Salt Lake Center
Mon 03:48:35 PM 39.0517 -109.2856 89° East 517 595 37,000  Level Salt Lake Center
Mon 03:49:37 PM 39.0553 -109.0800 89° East 518 596 37,000  Level Salt Lake Center
Mon 03:50:39 PM 39.0569 -108.9056 89° East 515 593 37,000  Level Salt Lake Center
Mon 03:51:13 PM 39.0589 -108.7869 89° East 513 590 37,000  Level Denver Center
Mon 03:52:15 PM 39.0553 -108.6119 91° East 514 592 37,000  Level Denver Center
Mon 03:53:17 PM 39.0478 -108.4078 93° East 515 593 37,000  Level Denver Center
Mon 03:54:19 PM 39.0439 -108.2319 92° East 516 594 37,000  Level Denver Center
Mon 03:55:21 PM 39.0389 -108.0317 92° East 507 583 37,000  Level Denver Center
Mon 03:56:23 PM 39.0328 -107.8572 93° East 509 586 37,000  Level Denver Center
Mon 03:57:25 PM 39.0272 -107.6544 92° East 510 587 37,000  Level Denver Center
Mon 03:58:28 PM 39.0206 -107.4794 93° East 512 589 37,000  Level Denver Center
Mon 03:59:30 PM 39.0119 -107.2719 93° East 520 598 37,000  Level Denver Center
Mon 04:00:32 PM 39.0044 -107.0931 93° East 523 602 37,000  Level Denver Center
Mon 04:06:32 PM 38.9560 -105.9670 93° East 514 592 37,000  Level FlightAware ADS-B
Mon 04:07:09 PM 38.9500 -105.8480 94° East 519 597 37,000  Level FlightAware ADS-B
Mon 04:07:41 PM 38.9450 -105.7500 94° East 524 603 37,000  Level FlightAware ADS-B
Mon 04:08:17 PM 38.9390 -105.6370 94° East 529 609 37,000  Level FlightAware ADS-B
Mon 04:08:48 PM 38.9340 -105.5430 94° East 520 598 37,000  Level FlightAware ADS-B
Mon 04:09:35 PM 38.9270 -105.4010 94° East 509 586 37,000  Level FlightAware ADS-B
Mon 04:10:09 PM 38.9210 -105.2990 94° East 501 577 37,000  Level FlightAware ADS-B
Mon 04:10:45 PM 38.9150 -105.1930 94° East 491 565 37,000  Level FlightAware ADS-B
Mon 04:11:21 PM 38.9100 -105.0890 94° East 497 572 37,000  Level FlightAware ADS-B
Mon 04:11:43 PM 38.9060 -105.0250 95° East 504 580 37,000  Level FlightAware ADS-B
Mon 04:12:17 PM 38.8940 -104.9220 98° East 515 593 37,000  Level FlightAware ADS-B
Mon 04:12:49 PM 38.8710 -104.8280 107° East 508 585 37,000  Level FlightAware ADS-B
Mon 04:13:27 PM 38.8460 -104.7190 106° East 503 579 37,000  Level FlightAware ADS-B
Mon 04:13:59 PM 38.8260 -104.6290 106° East 504 580 37,000  Level FlightAware ADS-B
Mon 04:14:35 PM 38.8020 -104.5270 107° East 507 583 37,000  Level FlightAware ADS-B
Mon 04:15:11 PM 38.7780 -104.4230 106° East 508 585 37,000  Level FlightAware ADS-B
Mon 04:15:48 PM 38.7530 -104.3160 107° East 507 583 37,000  Level FlightAware ADS-B
Mon 04:16:22 PM 38.7310 -104.2190 106° East 503 579 37,000  Level FlightAware ADS-B
Mon 04:16:57 PM 38.7080 -104.1200 107° East 506 582 37,000  Level FlightAware ADS-B
Mon 04:17:31 PM 38.6850 -104.0190 106° East 511 588 37,000  Level FlightAware ADS-B
Mon 04:18:05 PM 38.6630 -103.9210 106° East 508 585 37,000  Level FlightAware ADS-B
Mon 04:18:41 PM 38.6410 -103.8180 105° East 502 578 37,000  Level FlightAware ADS-B
Mon 04:19:01 PM 38.6370 -103.7590 95° East 497 572 37,000  Level FlightAware ADS-B
Mon 04:19:35 PM 38.6430 -103.6600 86° East 496 571 37,000  Level FlightAware ADS-B
Mon 04:20:17 PM 38.6510 -103.5410 85° East 500 575 37,000  Level FlightAware ADS-B
Mon 04:20:53 PM 38.6590 -103.4310 85° East 498 573 37,000  Level FlightAware ADS-B
Mon 04:21:29 PM 38.6660 -103.3250 85° East 500 575 37,000  Level FlightAware ADS-B
Mon 04:22:06 PM 38.6740 -103.2150 85° East 501 577 37,000  Level FlightAware ADS-B
Mon 04:22:49 PM 38.6830 -103.1020 84° East 499 574 37,000  Level FlightAware ADS-B
Mon 04:23:22 PM 38.6890 -102.9920 86° East 499 574 37,000  Level FlightAware ADS-B
Mon 04:23:54 PM 38.6960 -102.8970 85° East 501 577 37,000  Level FlightAware ADS-B
Mon 04:24:31 PM 38.7020 -102.7920 86° East 501 577 37,000  Level FlightAware ADS-B
Mon 04:25:08 PM 38.7100 -102.6790 85° East 500 575 37,000  Level FlightAware ADS-B
Mon 04:25:37 PM 38.7150 -102.5980 85° East 497 572 37,000  Level FlightAware ADS-B
Mon 04:26:17 PM 38.7220 -102.4800 86° East 496 571 37,000  Level FlightAware ADS-B
Mon 04:26:48 PM 38.7280 -102.3990 85° East 496 571 37,000  Level FlightAware ADS-B
Mon 04:27:24 PM 38.7340 -102.3100 85° East 496 571 37,000  Level FlightAware ADS-B
Mon 04:28:01 PM 38.7400 -102.2170 85° East 496 571 37,000  Level FlightAware ADS-B
Mon 04:28:35 PM 38.7460 -102.1330 85° East 496 571 37,000  Level FlightAware ADS-B
Mon 04:29:11 PM 38.7520 -102.0430 85° East 496 571 37,000  Level FlightAware ADS-B
Mon 04:29:47 PM 38.7580 -101.9530 85° East 496 571 37,000  Level FlightAware ADS-B
Mon 04:30:24 PM 38.7640 -101.8610 85° East 496 571 37,000  Level FlightAware ADS-B
Mon 04:31:01 PM 38.7710 -101.7690 84° East 496 571 37,000  Level FlightAware ADS-B
Mon 04:31:37 PM 38.7770 -101.6790 85° East 496 571 37,000  Level FlightAware ADS-B
Mon 04:32:13 PM 38.7830 -101.5900 85° East 496 571 37,000  Level FlightAware ADS-B
Mon 04:32:50 PM 38.7890 -101.4970 85° East 496 571 37,000  Level FlightAware ADS-B
Mon 04:33:26 PM 38.7950 -101.4080 85° East 496 571 37,000  Level FlightAware ADS-B
Mon 04:34:02 PM 38.8010 -101.3180 85° East 496 571 37,000  Level FlightAware ADS-B
Mon 04:34:48 PM 38.8090 -101.2030 85° East 496 571 37,000  Level FlightAware ADS-B
Mon 04:35:24 PM 38.8150 -101.1130 85° East 496 571 37,000  Level FlightAware ADS-B
Mon 04:36:00 PM 38.8210 -101.0230 85° East 496 571 37,000  Level FlightAware ADS-B
Mon 04:37:01 PM 38.8258 -100.5714 85° East 510 587 37,000  Level Kansas City Center
Mon 04:37:59 PM 38.8333 -100.4028 87° East 508 585 37,000  Level Denver Center
Mon 04:39:04 PM 38.8428 -100.1992 87° East 506 582 37,000  Level Kansas City Center
Mon 04:40:08 PM 38.8481 -100.0194 88° East 519 597 37,000  Level Kansas City Center
Mon 04:46:13 PM 38.8920 -98.8760 88° East 515 593 37,000  Level FlightAware ADS-B
Mon 04:47:13 PM 38.8980 -98.6970 87° East 504 580 37,000  Level FlightAware ADS-B
Mon 04:47:58 PM 38.9030 -98.5780 87° East 504 580 37,000  Level FlightAware ADS-B
Mon 04:48:35 PM 38.9050 -98.4520 89° East 515 593 37,000  Level FlightAware ADS-B
Mon 04:49:07 PM 38.9080 -98.3500 88° East 515 593 37,000  Level FlightAware ADS-B
Mon 04:49:37 PM 38.9100 -98.2600 88° East 513 590 37,000  Level FlightAware ADS-B
Mon 04:50:17 PM 38.9130 -98.1460 88° East 505 581 37,000  Level FlightAware ADS-B
Mon 04:50:55 PM 38.9160 -98.0260 88° East 502 578 37,000  Level FlightAware ADS-B
Mon 04:51:27 PM 38.9180 -97.9310 88° East 501 577 37,000  Level FlightAware ADS-B
Mon 04:52:03 PM 38.9210 -97.8240 88° East 505 581 37,000  Level FlightAware ADS-B
Mon 04:52:39 PM 38.9230 -97.7160 89° East 508 585 37,000  Level FlightAware ADS-B
Mon 04:53:12 PM 38.9280 -97.6170 86° East 511 588 37,000  Level FlightAware ADS-B
Mon 04:53:47 PM 38.9410 -97.5130 81° East 512 589 37,000  Level FlightAware ADS-B
Mon 04:54:23 PM 38.9570 -97.4060 79° East 510 587 37,000  Level FlightAware ADS-B
Mon 04:55:00 PM 38.9730 -97.3010 79° East 510 587 37,000  Level FlightAware ADS-B
Mon 04:55:39 PM 38.9910 -97.1790 79° East 508 585 37,000  Level FlightAware ADS-B
Mon 04:56:17 PM 39.0070 -97.0700 79° East 508 585 37,000  Level FlightAware ADS-B
Mon 04:56:53 PM 39.0230 -96.9600 79° East 512 589 37,000  Level FlightAware ADS-B
Mon 04:57:23 PM 39.0350 -96.8760 80° East 514 592 37,000  Level FlightAware ADS-B
Mon 04:58:01 PM 39.0530 -96.7550 79° East 517 595 37,000  Level FlightAware ADS-B
Mon 04:58:37 PM 39.0680 -96.6480 80° East 514 592 37,000  Level FlightAware ADS-B
Mon 04:59:09 PM 39.0820 -96.5500 80° East 508 585 37,000  Level FlightAware ADS-B
Mon 04:59:43 PM 39.0960 -96.4510 80° East 503 579 37,000  Level FlightAware ADS-B
Mon 05:00:21 PM 39.1120 -96.3370 80° East 504 580 37,000  Level FlightAware ADS-B
Mon 05:01:03 PM 39.1290 -96.2140 80° East 508 585 37,000  Level FlightAware ADS-B
Mon 05:01:35 PM 39.1410 -96.1220 80° East 507 583 37,000  Level FlightAware ADS-B
Mon 05:02:12 PM 39.1550 -96.0290 79° East 507 583 37,000  Level FlightAware ADS-B
Mon 05:02:50 PM 39.1720 -95.8950 81° East 513 590 37,000  Level FlightAware ADS-B
Mon 05:03:23 PM 39.1860 -95.7960 80° East 513 590 37,000  Level FlightAware ADS-B
Mon 05:03:59 PM 39.2000 -95.6860 81° East 513 590 37,000  Level FlightAware ADS-B
Mon 05:04:36 PM 39.2150 -95.5760 80° East 512 589 37,000  Level FlightAware ADS-B
Mon 05:05:06 PM 39.2270 -95.4850 80° East 510 587 37,000  Level FlightAware ADS-B
Mon 05:05:44 PM 39.2420 -95.3730 80° East 511 588 37,000  Level FlightAware ADS-B
Mon 05:06:20 PM 39.2560 -95.2640 81° East 515 593 37,000  Level FlightAware ADS-B
Mon 05:06:53 PM 39.2690 -95.1650 80° East 514 592 37,000  Level FlightAware ADS-B
Mon 05:07:29 PM 39.2830 -95.0540 81° East 514 592 37,000  Level FlightAware ADS-B
Mon 05:08:04 PM 39.2960 -94.9500 81° East 514 592 37,000  Level FlightAware ADS-B
Mon 05:08:41 PM 39.3100 -94.8380 81° East 516 594 37,000  Level FlightAware ADS-B
Mon 05:09:11 PM 39.3210 -94.7490 81° East 517 595 37,000  Level FlightAware ADS-B
Mon 05:09:45 PM 39.3350 -94.6420 80° East 519 597 37,000  Level FlightAware ADS-B
Mon 05:10:25 PM 39.3500 -94.5220 81° East 521 600 37,000  Level FlightAware ADS-B
Mon 05:10:57 PM 39.3620 -94.4210 81° East 522 601 37,000  Level FlightAware ADS-B
Mon 05:11:34 PM 39.3760 -94.3090 81° East 522 601 37,000  Level FlightAware ADS-B
Mon 05:12:10 PM 39.3890 -94.1970 81° East 521 600 37,000  Level FlightAware ADS-B
Mon 05:12:45 PM 39.4020 -94.0900 81° East 521 600 37,000  Level FlightAware ADS-B
Mon 05:13:22 PM 39.4150 -93.9770 81° East 518 596 37,000  Level FlightAware ADS-B
Mon 05:13:54 PM 39.4270 -93.8770 81° East 517 595 37,000  Level FlightAware ADS-B
Mon 05:14:29 PM 39.4390 -93.7730 81° East 518 596 37,000 609 Level FlightAware ADS-B
Mon 05:15:03 PM 39.4510 -93.6670 82° East 518 596 37,700 1,075 Climbing FlightAware ADS-B
Mon 05:15:36 PM 39.4630 -93.5680 81° East 518 596 38,200 1,083 Climbing FlightAware ADS-B
Mon 05:16:15 PM 39.4760 -93.4500 82° East 514 592 39,000 649 Climbing FlightAware ADS-B
Mon 05:16:50 PM 39.4880 -93.3430 82° East 511 588 39,000  Level FlightAware ADS-B
Mon 05:17:25 PM 39.4990 -93.2440 82° East 509 586 39,000  Level FlightAware ADS-B
Mon 05:17:59 PM 39.5110 -93.1360 82° East 507 583 39,000  Level FlightAware ADS-B
Mon 05:18:34 PM 39.5230 -93.0290 82° East 507 583 39,000  Level FlightAware ADS-B
Mon 05:19:11 PM 39.5340 -92.9310 82° East 508 585 39,000  Level FlightAware ADS-B
Mon 05:19:46 PM 39.5460 -92.8130 82° East 510 587 39,000  Level FlightAware ADS-B
Mon 05:20:18 PM 39.5560 -92.7200 82° East 512 589 39,000  Level FlightAware ADS-B
Mon 05:20:56 PM 39.5680 -92.6060 82° East 513 590 39,000  Level FlightAware ADS-B
Mon 05:21:31 PM 39.5800 -92.4960 82° East 512 589 39,000  Level FlightAware ADS-B
Mon 05:22:04 PM 39.5910 -92.3910 82° East 515 593 39,000  Level FlightAware ADS-B
Mon 05:22:39 PM 39.6020 -92.2860 82° East 515 593 39,000  Level FlightAware ADS-B
Mon 05:23:17 PM 39.6140 -92.1700 82° East 513 590 39,000  Level FlightAware ADS-B
Mon 05:23:48 PM 39.6230 -92.0800 83° East 513 590 39,000  Level FlightAware ADS-B
Mon 05:24:25 PM 39.6340 -91.9680 83° East 511 588 39,000  Level FlightAware ADS-B
Mon 05:25:02 PM 39.6450 -91.8520 83° East 510 587 39,000  Level FlightAware ADS-B
Mon 05:25:33 PM 39.6550 -91.7580 82° East 509 586 39,000  Level FlightAware ADS-B
Mon 05:26:07 PM 39.6650 -91.6580 83° East 511 588 39,000  Level FlightAware ADS-B
Mon 05:26:45 PM 39.6760 -91.5390 83° East 511 588 39,000  Level FlightAware ADS-B
Mon 05:27:21 PM 39.6870 -91.4290 83° East 509 586 39,000  Level FlightAware ADS-B
Mon 05:27:53 PM 39.6960 -91.3340 83° East 508 585 39,000  Level FlightAware ADS-B
Mon 05:28:24 PM 39.7040 -91.2440 83° East 509 586 39,000  Level FlightAware ADS-B
Mon 05:29:01 PM 39.7150 -91.1290 83° East 511 588 39,000  Level FlightAware ADS-B
Mon 05:29:41 PM 39.7260 -91.0110 83° East 510 587 39,000  Level FlightAware ADS-B
Mon 05:30:13 PM 39.7350 -90.9100 83° East 508 585 39,000  Level FlightAware ADS-B
Mon 05:30:49 PM 39.7440 -90.8070 83° East 507 583 39,000  Level FlightAware ADS-B
Mon 05:31:21 PM 39.7530 -90.7040 83° East 507 583 39,000  Level FlightAware ADS-B
Mon 05:31:57 PM 39.7630 -90.5960 83° East 508 585 39,000  Level FlightAware ADS-B
Mon 05:32:36 PM 39.7730 -90.4820 83° East 509 586 39,000  Level FlightAware ADS-B
Mon 05:33:12 PM 39.7830 -90.3680 83° East 509 586 39,000  Level FlightAware ADS-B
Mon 05:33:46 PM 39.7910 -90.2650 84° East 510 587 39,000  Level FlightAware ADS-B
Mon 05:34:22 PM 39.8000 -90.1580 84° East 508 585 39,000  Level FlightAware ADS-B
Mon 05:34:52 PM 39.8080 -90.0670 83° East 507 583 39,000  Level FlightAware ADS-B
Mon 05:35:30 PM 39.8170 -89.9530 84° East 507 583 39,000  Level FlightAware ADS-B
Mon 05:36:07 PM 39.8270 -89.8410 83° East 507 583 39,000  Level FlightAware ADS-B
Mon 05:36:32 PM 39.8330 -89.7620 84° East 508 585 39,000  Level FlightAware ADS-B
Mon 05:37:10 PM 39.8390 -89.6440 86° East 507 583 39,000  Level FlightAware ADS-B
Mon 05:37:52 PM 39.8410 -89.5200 89° East 506 582 39,000  Level FlightAware ADS-B
Mon 05:38:24 PM 39.8410 -89.4250 90° East 506 582 39,000  Level FlightAware ADS-B
Mon 05:38:58 PM 39.8420 -89.3210 89° East 507 583 39,000  Level FlightAware ADS-B
Mon 05:39:34 PM 39.8420 -89.2080 90° East 509 586 39,000  Level FlightAware ADS-B
Mon 05:40:10 PM 39.8420 -89.1030 90° East 509 586 39,000  Level FlightAware ADS-B
Mon 05:40:42 PM 39.8420 -89.0050 90° East 509 586 39,000  Level FlightAware ADS-B
Mon 05:41:18 PM 39.8420 -88.8920 90° East 509 586 39,000  Level FlightAware ADS-B
Mon 05:41:56 PM 39.8420 -88.7790 90° East 510 587 39,000  Level FlightAware ADS-B
Mon 05:42:32 PM 39.8420 -88.6680 90° East 511 588 39,000  Level FlightAware ADS-B
Mon 05:43:04 PM 39.8420 -88.5670 90° East 512 589 39,000  Level FlightAware ADS-B
Mon 05:43:40 PM 39.8420 -88.4600 90° East 512 589 39,000  Level FlightAware ADS-B
Mon 05:44:16 PM 39.8410 -88.3460 91° East 510 587 39,000  Level FlightAware ADS-B
Mon 05:44:52 PM 39.8400 -88.2400 91° East 508 585 39,000  Level FlightAware ADS-B
Mon 05:45:26 PM 39.8400 -88.1340 90° East 509 586 39,000  Level FlightAware ADS-B
Mon 05:46:02 PM 39.8390 -88.0230 91° East 510 587 39,000  Level FlightAware ADS-B
Mon 05:46:34 PM 39.8380 -87.9260 91° East 509 586 39,000  Level FlightAware ADS-B
Mon 05:47:10 PM 39.8370 -87.8190 91° East 510 587 39,000  Level FlightAware ADS-B
Mon 05:47:46 PM 39.8360 -87.7070 91° East 509 586 39,000  Level FlightAware ADS-B
Mon 05:48:23 PM 39.8350 -87.5930 91° East 509 586 39,000  Level FlightAware ADS-B
Mon 05:48:58 PM 39.8340 -87.4880 91° East 509 586 39,000  Level FlightAware ADS-B
Mon 05:49:34 PM 39.8320 -87.3760 91° East 510 587 39,000  Level FlightAware ADS-B
Mon 05:50:08 PM 39.8310 -87.2710 91° East 512 589 39,000  Level FlightAware ADS-B
Mon 05:50:44 PM 39.8290 -87.1610 91° East 514 592 39,000  Level FlightAware ADS-B
Mon 05:51:20 PM 39.8280 -87.0490 91° East 514 592 39,000  Level FlightAware ADS-B
Mon 05:51:56 PM 39.8260 -86.9420 91° East 513 590 39,000  Level FlightAware ADS-B
Mon 05:52:30 PM 39.8240 -86.8360 91° East 514 592 39,000  Level FlightAware ADS-B
Mon 05:53:06 PM 39.8220 -86.7250 91° East 515 593 39,000  Level FlightAware ADS-B
Mon 05:53:36 PM 39.8200 -86.6290 92° East 515 593 39,000  Level FlightAware ADS-B
Mon 05:54:14 PM 39.8180 -86.5150 91° East 517 595 39,000  Level FlightAware ADS-B
Mon 05:54:54 PM 39.8180 -86.3930 90° East 514 592 39,000  Level FlightAware ADS-B
Mon 05:55:30 PM 39.8340 -86.2770 80° East 507 583 39,000  Level FlightAware ADS-B
Mon 05:56:08 PM 39.8560 -86.1700 75° East 507 583 39,000  Level FlightAware ADS-B
Mon 05:56:44 PM 39.8790 -86.0620 74° East 509 586 39,000  Level FlightAware ADS-B
Mon 05:57:17 PM 39.9000 -85.9650 74° East 510 587 39,000  Level FlightAware ADS-B
Mon 05:57:49 PM 39.9200 -85.8720 74° East 510 587 39,000  Level FlightAware ADS-B
Mon 05:58:29 PM 39.9450 -85.7520 75° East 509 586 39,000  Level FlightAware ADS-B
Mon 05:59:01 PM 39.9660 -85.6550 74° East 508 585 39,000  Level FlightAware ADS-B
Mon 05:59:37 PM 39.9870 -85.5500 75° East 506 582 39,000  Level FlightAware ADS-B
Mon 06:00:10 PM 40.0070 -85.4530 75° East 505 581 39,000  Level FlightAware ADS-B
Mon 06:00:45 PM 40.0280 -85.3520 75° East 505 581 39,000  Level FlightAware ADS-B
Mon 06:01:21 PM 40.0500 -85.2460 75° East 505 581 39,000  Level FlightAware ADS-B
Mon 06:01:57 PM 40.0710 -85.1390 76° East 506 582 39,000  Level FlightAware ADS-B
Mon 06:02:32 PM 40.0920 -85.0360 75° East 505 581 39,000  Level FlightAware ADS-B
Mon 06:03:06 PM 40.1120 -84.9360 75° East 505 581 39,000  Level FlightAware ADS-B
Mon 06:03:41 PM 40.1330 -84.8320 75° East 506 582 39,000  Level FlightAware ADS-B
Mon 06:04:10 PM 40.1510 -84.7490 74° East 498 573 39,000  Level FlightAware ADS-B
Mon 06:04:46 PM 40.1900 -84.6530 62° Northeast 487 560 39,000  Level FlightAware ADS-B
Mon 06:05:19 PM 40.2260 -84.5680 61° Northeast 487 560 39,000  Level FlightAware ADS-B
Mon 06:05:54 PM 40.2620 -84.4770 63° Northeast 487 560 39,000  Level FlightAware ADS-B
Mon 06:06:30 PM 40.2980 -84.3810 64° Northeast 491 565 39,000  Level FlightAware ADS-B
Mon 06:07:03 PM 40.3280 -84.2970 65° Northeast 492 566 39,000  Level FlightAware ADS-B
Mon 06:07:38 PM 40.3630 -84.2010 64° Northeast 492 566 39,000  Level FlightAware ADS-B
Mon 06:08:15 PM 40.3990 -84.1020 64° Northeast 495 570 39,000  Level FlightAware ADS-B
Mon 06:08:49 PM 40.4360 -84.0080 63° Northeast 493 567 39,000  Level FlightAware ADS-B
Mon 06:09:28 PM 40.4760 -83.9050 63° Northeast 494 568 39,000  Level FlightAware ADS-B
Mon 06:09:59 PM 40.5080 -83.8230 63° Northeast 495 570 39,000  Level FlightAware ADS-B
Mon 06:10:36 PM 40.5460 -83.7240 63° Northeast 494 568 39,000  Level FlightAware ADS-B
Mon 06:11:00 PM 40.5710 -83.6590 63° Northeast 495 570 39,000  Level FlightAware ADS-B
Mon 06:11:46 PM 40.6190 -83.5350 63° Northeast 494 568 39,000  Level FlightAware ADS-B
Mon 06:12:20 PM 40.6540 -83.4440 63° Northeast 494 568 39,000  Level FlightAware ADS-B
Mon 06:12:54 PM 40.6880 -83.3540 63° Northeast 491 565 39,000  Level FlightAware ADS-B
Mon 06:13:34 PM 40.7290 -83.2470 63° Northeast 487 560 39,000  Level FlightAware ADS-B
Mon 06:14:06 PM 40.7590 -83.1590 66° East 492 566 39,000  Level FlightAware ADS-B
Mon 06:14:41 PM 40.7840 -83.0620 71° East 497 572 39,000  Level FlightAware ADS-B
Mon 06:15:18 PM 40.8070 -82.9520 75° East 496 571 39,000  Level FlightAware ADS-B
Mon 06:15:54 PM 40.8290 -82.8480 74° East 496 571 39,000  Level FlightAware ADS-B
Mon 06:16:26 PM 40.8480 -82.7540 75° East 496 571 39,000  Level FlightAware ADS-B
Mon 06:17:01 PM 40.8680 -82.6550 75° East 494 568 39,000  Level FlightAware ADS-B
Mon 06:17:33 PM 40.8850 -82.5700 75° East 494 568 39,000  Level FlightAware ADS-B
Mon 06:18:14 PM 40.9110 -82.4380 75° East 496 571 39,000  Level FlightAware ADS-B
Mon 06:18:44 PM 40.9290 -82.3510 75° East 499 574 39,000  Level FlightAware ADS-B
Mon 06:19:30 PM 40.9550 -82.2150 76° East 500 575 39,000  Level FlightAware ADS-B
Mon 06:20:03 PM 40.9690 -82.1460 75° East 499 574 39,000  Level FlightAware ADS-B
Mon 06:20:39 PM 40.9880 -82.0450 76° East 498 573 39,000  Level FlightAware ADS-B
Mon 06:21:08 PM 41.0040 -81.9650 75° East 497 572 39,000  Level FlightAware ADS-B
Mon 06:21:45 PM 41.0310 -81.8270 75° East 495 570 39,000  Level FlightAware ADS-B
Mon 06:22:21 PM 41.0520 -81.7220 75° East 498 573 39,000  Level FlightAware ADS-B
Mon 06:22:49 PM 41.0700 -81.6330 75° East 499 574 39,000  Level FlightAware ADS-B
Mon 06:23:26 PM 41.0910 -81.5220 76° East 500 575 39,000  Level FlightAware ADS-B
Mon 06:23:58 PM 41.1090 -81.4290 76° East 499 574 39,000  Level FlightAware ADS-B
Mon 06:24:37 PM 41.1320 -81.3120 75° East 496 571 39,000  Level FlightAware ADS-B
Mon 06:25:14 PM 41.1520 -81.2040 76° East 495 570 39,000  Level FlightAware ADS-B
Mon 06:25:46 PM 41.1710 -81.1080 75° East 495 570 39,000  Level FlightAware ADS-B
Mon 06:26:22 PM 41.1910 -81.0020 76° East 496 571 39,000  Level FlightAware ADS-B
Mon 06:26:54 PM 41.2090 -80.9080 76° East 497 572 39,000  Level FlightAware ADS-B
Mon 06:27:36 PM 41.2310 -80.7890 76° East 495 570 39,000  Level FlightAware ADS-B
Mon 06:28:11 PM 41.2500 -80.6870 76° East 493 567 39,000  Level FlightAware ADS-B
Mon 06:28:51 PM 41.2700 -80.5780 76° East 492 566 39,000  Level FlightAware ADS-B
Mon 06:29:31 PM 41.2940 -80.4500 76° East 492 566 39,000  Level FlightAware ADS-B
Mon 06:30:06 PM 41.3110 -80.3550 77° East 494 568 39,000  Level FlightAware ADS-B
Mon 06:30:41 PM 41.3300 -80.2490 77° East 493 567 39,000  Level FlightAware ADS-B
Mon 06:31:21 PM 41.3520 -80.1280 76° East 491 565 39,000  Level FlightAware ADS-B
Mon 06:31:58 PM 41.3730 -80.0150 76° East 491 565 39,000  Level FlightAware ADS-B
Mon 06:32:32 PM 41.3900 -79.9200 77° East 495 570 39,000  Level FlightAware ADS-B
Mon 06:33:08 PM 41.4070 -79.8240 77° East 500 575 39,000  Level FlightAware ADS-B
Mon 06:33:41 PM 41.4270 -79.7090 77° East 505 581 39,000  Level FlightAware ADS-B
Mon 06:34:15 PM 41.4450 -79.6070 77° East 506 582 39,000  Level FlightAware ADS-B
Mon 06:34:59 PM 41.4690 -79.4710 77° East 508 585 39,000  Level FlightAware ADS-B
Mon 06:35:42 PM 41.4910 -79.3420 77° East 506 582 39,000  Level FlightAware ADS-B
Mon 06:36:19 PM 41.5110 -79.2300 77° East 504 580 39,000  Level FlightAware ADS-B
Mon 06:36:56 PM 41.5300 -79.1190 77° East 501 577 39,000  Level FlightAware ADS-B
Mon 06:37:33 PM 41.5480 -79.0120 77° East 499 574 39,000  Level FlightAware ADS-B
Mon 06:38:05 PM 41.5650 -78.9110 77° East 499 574 39,000  Level FlightAware ADS-B
Mon 06:38:41 PM 41.5830 -78.8050 77° East 499 574 39,000  Level FlightAware ADS-B
Mon 06:39:17 PM 41.6010 -78.6960 78° East 501 577 39,000  Level FlightAware ADS-B
Mon 06:39:55 PM 41.6210 -78.5790 77° East 503 579 39,000  Level FlightAware ADS-B
Mon 06:40:29 PM 41.6380 -78.4750 78° East 504 580 39,000  Level FlightAware ADS-B
Mon 06:41:03 PM 41.6540 -78.3770 78° East 505 581 39,000  Level FlightAware ADS-B
Mon 06:41:33 PM 41.6690 -78.2840 78° East 504 580 39,000  Level FlightAware ADS-B
Mon 06:42:11 PM 41.6880 -78.1700 77° East 505 581 39,000  Level FlightAware ADS-B
Mon 06:42:56 PM 41.7080 -78.0440 78° East 506 582 39,000  Level FlightAware ADS-B
Mon 06:43:26 PM 41.7240 -77.9440 78° East 506 582 39,000  Level FlightAware ADS-B
Mon 06:44:01 PM 41.7400 -77.8420 78° East 506 582 39,000  Level FlightAware ADS-B
Mon 06:44:41 PM 41.7610 -77.7120 78° East 506 582 39,000  Level FlightAware ADS-B
Mon 06:45:16 PM 41.7760 -77.6050 79° East 508 585 39,000  Level FlightAware ADS-B
Mon 06:45:52 PM 41.7680 -77.4870 95° East 521 600 39,000  Level FlightAware ADS-B
Mon 06:46:26 PM 41.7420 -77.3840 109° East 524 603 39,000  Level FlightAware ADS-B
Mon 06:47:02 PM 41.7120 -77.2730 110° East 525 604 39,000  Level FlightAware ADS-B
Mon 06:47:38 PM 41.6820 -77.1650 110° East 526 605 39,000  Level FlightAware ADS-B
Mon 06:48:10 PM 41.6550 -77.0650 110° East 526 605 39,000  Level FlightAware ADS-B
Mon 06:48:44 PM 41.6270 -76.9620 110° East 525 604 39,000  Level FlightAware ADS-B
Mon 06:49:16 PM 41.6010 -76.8660 110° East 526 605 39,000  Level FlightAware ADS-B
Mon 06:49:55 PM 41.5680 -76.7450 110° East 527 606 39,000 -156 Level FlightAware ADS-B
Mon 06:50:33 PM 41.5370 -76.6310 110° East 525 604 38,800 -522 Descending FlightAware ADS-B
Mon 06:51:04 PM 41.5100 -76.5360 111° Southeast 523 602 38,400 -794 Descending FlightAware ADS-B
Mon 06:51:41 PM 41.4800 -76.4240 110° East 522 601 37,900 -815 Descending FlightAware ADS-B
Mon 06:52:25 PM 41.4440 -76.2950 110° East 520 598 37,300 -1,151 Descending FlightAware ADS-B
Mon 06:52:54 PM 41.4190 -76.2070 111° Southeast 513 590 36,500 -1,754 Descending FlightAware ADS-B
Mon 06:53:30 PM 41.3900 -76.1040 111° Southeast 502 578 35,400 -3,120 Descending FlightAware ADS-B
Mon 06:54:09 PM 41.3580 -75.9890 110° East 524 603 32,600 -3,583 Descending FlightAware ADS-B
Mon 06:54:42 PM 41.3300 -75.8900 111° Southeast 518 596 31,100 -2,914 Descending FlightAware ADS-B
Mon 06:55:19 PM 41.2980 -75.7770 111° Southeast 511 588 29,200 -2,870 Descending FlightAware ADS-B
Mon 06:55:51 PM 41.2730 -75.6920 111° Southeast 504 580 27,800 -2,597 Descending FlightAware ADS-B
Mon 06:56:26 PM 41.2400 -75.5900 113° Southeast 494 568 26,300 -2,677 Descending FlightAware ADS-B
Mon 06:56:56 PM 41.2120 -75.5060 114° Southeast 484 557 24,900 -2,500 Descending FlightAware ADS-B
Mon 06:57:38 PM 41.1750 -75.3980 114° Southeast 474 545 23,300 -1,443 Descending FlightAware ADS-B
Mon 06:58:15 PM 41.1420 -75.2980 114° Southeast 467 537 23,000 -261 Descending FlightAware ADS-B
Mon 06:58:47 PM 41.1140 -75.2150 114° Southeast 466 536 23,000  Level FlightAware ADS-B
Mon 06:59:24 PM 41.0800 -75.1170 115° Southeast 469 540 23,000 -343 Level FlightAware ADS-B
Mon 06:59:57 PM 41.0520 -75.0330 114° Southeast 465 535 22,600 -1,200 Descending FlightAware ADS-B
Mon 07:00:34 PM 41.0190 -74.9370 114° Southeast 461 531 21,600 -1,333 Descending FlightAware ADS-B
Mon 07:01:09 PM 40.9940 -74.8420 109° East 431 496 21,000 -522 Descending FlightAware ADS-B
Mon 07:01:43 PM 40.9840 -74.7610 99° East 392 451 21,000 -150 Level FlightAware ADS-B
Mon 07:02:29 PM 40.9820 -74.6580 91° East 358 412 20,800 -500 Descending FlightAware ADS-B
Mon 07:03:07 PM 41.0010 -74.5860 71° East 361 415 20,300 -878 Descending FlightAware ADS-B
Mon 07:03:10 PM 41.0010 -74.5740 90° East 362 417 20,200 -732 Descending FlightAware ADS-B
Mon 07:03:48 PM 40.9922 -74.5069 90° East 364 419 19,800 -727 Descending New York Center
Mon 07:04:49 PM 40.9669 -74.3792 105° East 357 411 19,000 -393 Descending New York Center
Mon 07:05:50 PM 40.9378 -74.2403 105° East 363 418 19,000  Level New York Center
Mon 07:06:37 PM 40.9167 -74.1333 105° East 366 421 19,000  Level New York TRACON
Mon 07:07:43 PM 40.8500 -74.0000 123° Southeast 365 420 19,000 -1,402 Level New York TRACON
Mon 07:13:32 PM 40.5390 -73.4770 123° Southeast 291 335 9,300 -1,691 Descending FlightAware ADS-B
Mon 07:13:52 PM 40.5230 -73.5030 231° Southwest 292 336 8,600 -2,143 Descending FlightAware ADS-B
Mon 07:14:00 PM 40.5150 -73.5140 226° Southwest 295 339 8,300 -2,143 Descending FlightAware ADS-B
Mon 07:14:06 PM 40.5080 -73.5210 217° Southwest 298 343 8,100 -1,500 Descending FlightAware ADS-B
Mon 07:14:28 PM 40.4810 -73.5400 208° Southwest 295 339 7,600 -1,355 Descending FlightAware ADS-B
Mon 07:14:37 PM 40.4740 -73.5480 221° Southwest 290 334 7,400 -1,778 Descending FlightAware ADS-B
Mon 07:14:55 PM 40.4580 -73.5740 231° Southwest 284 327 6,800 -1,950 Descending FlightAware ADS-B
Mon 07:15:17 PM 40.4410 -73.6040 233° Southwest 282 325 6,100 -2,049 Descending FlightAware ADS-B
Mon 07:15:36 PM 40.4250 -73.6310 232° Southwest 281 323 5,400 -2,000 Descending FlightAware ADS-B
Mon 07:15:56 PM 40.4120 -73.6560 236° Southwest 283 326 4,800 -1,500 Descending FlightAware ADS-B
Mon 07:16:20 PM 40.3930 -73.6910 235° Southwest 281 323 4,300 -1,116 Descending FlightAware ADS-B
Mon 07:16:39 PM 40.3790 -73.7170 235° Southwest 275 316 4,000 -1,029 Descending FlightAware ADS-B
Mon 07:16:55 PM 40.3670 -73.7380 233° Southwest 269 310 3,700 -1,029 Descending FlightAware ADS-B
Mon 07:17:14 PM 40.3540 -73.7630 236° Southwest 265 305 3,400 -1,161 Descending FlightAware ADS-B
Mon 07:17:26 PM 40.3500 -73.7820 255° West 259 298 3,100 -1,500 Descending FlightAware ADS-B
Mon 07:17:30 PM 40.3500 -73.7880 270° West 257 296 3,000 -1,059 Descending FlightAware ADS-B
Mon 07:17:43 PM 40.3540 -73.8070 285° West 250 288 2,800 -1,091 Descending FlightAware ADS-B
Mon 07:18:03 PM 40.3640 -73.8360 294° West 247 284 2,400 -1,143 Descending FlightAware ADS-B
Mon 07:18:25 PM 40.3740 -73.8600 299° West 245 282 2,000 -682 Descending FlightAware ADS-B
Mon 07:18:47 PM 40.3860 -73.8930 296° West 228 262 1,900 -146 Descending FlightAware ADS-B
Mon 07:19:06 PM 40.3960 -73.9150 301° West 212 244 1,900  Level FlightAware ADS-B
Mon 07:19:15 PM 40.4020 -73.9210 323° Northwest 204 235 1,900  Level FlightAware ADS-B
Mon 07:19:23 PM 40.4090 -73.9240 342° North 197 227 1,900  Level FlightAware ADS-B
Mon 07:19:26 PM 40.4120 -73.9250 346° North 190 219 1,900  Level FlightAware ADS-B
Mon 07:19:52 PM 40.4320 -73.9180 15° North 174 200 1,900  Level FlightAware ADS-B
Mon 07:20:18 PM 40.4500 -73.9080 23° Northeast 168 193 1,900  Level FlightAware ADS-B
Mon 07:20:38 PM 40.4650 -73.8960 31° Northeast 170 196 1,900  Level FlightAware ADS-B
Mon 07:20:54 PM 40.4750 -73.8880 31° Northeast 171 197 1,900  Level FlightAware ADS-B
Mon 07:21:15 PM 40.4890 -73.8770 31° Northeast 171 197 1,900  Level FlightAware ADS-B
Mon 07:21:35 PM 40.5030 -73.8660 31° Northeast 170 196 1,900  Level FlightAware ADS-B
Mon 07:21:54 PM 40.5160 -73.8550 33° Northeast 169 194 1,900  Level FlightAware ADS-B
Mon 07:22:15 PM 40.5300 -73.8450 28° Northeast 172 198 1,900  Level FlightAware ADS-B
Mon 07:22:27 PM 40.5380 -73.8380 34° Northeast 174 200 1,900 -500 Level FlightAware ADS-B
Mon 07:22:51 PM 40.5540 -73.8260 30° Northeast 169 194 1,600 -837 Descending FlightAware ADS-B
Mon 07:23:10 PM 40.5670 -73.8160 30° Northeast 152 175 1,300 -811 Descending FlightAware ADS-B
Mon 07:23:28 PM 40.5780 -73.8080 29° Northeast 139 160 1,100 -649 Descending FlightAware ADS-B
Mon 07:23:47 PM 40.5870 -73.8000 34° Northeast 128 147 900 -769 Descending FlightAware ADS-B
Mon 07:24:07 PM 40.5970 -73.7930 28° Northeast 124 143 600 -750 Descending FlightAware ADS-B
Mon 07:24:27 PM 40.6070 -73.7850 31° Northeast 126 145 400 -667 Descending FlightAware ADS-B
Mon 07:24:52 PM 40.6200 -73.7750 30° Northeast 130 150 100 -720 Descending FlightAware ADS-B
Mon 07:25:08 PM 40.6290 -73.7680 31° Northeast 127 146 -375 Descending FlightAware ADS-B

Login

Don't have an account? Register now (free) for customized features, flight alerts, and more!